Aeroporto :
LOGIN :

Iscrizione | Disclaimer

   EN    FR    IT 

 










Sommario :    VFR   VFR Marginale   IFR   IFR Intensivo   IFR Molto Intensivo
Visibilità : 
Base nubi : 
>= 8 km
>= 3000ft
5 / 8 km
1000 / 3000 ft
1500m / 5 km
500 / 1000 ft
800 / 1500m
200 / 500 ft
< 800m
< 200 ft
Simboli :   Temporali  Nebbia  Neve Forte  Precipitazioni Forti  Vento > 20 kt
SIGMETs :   Varie  Temporali  Ghiacco  Turbolenza  Onda orograficha  Ceneri Vulcaniche






- Altitudine del aeroporto : 374 ft
- Codice IATA : LIS


LPPT - Lisboa Portela

ULTIMO METAR :
  • 242330Z 36005KT 330V040 9999 FEW008 10/09 Q1026

METARs OBSOLETI :
  • 242300Z 34009KT 280V360 9999 FEW009 11/09 Q1027
  • 242230Z 32011KT 9999 FEW009 12/09 Q1027
  • 242200Z 31015KT 9999 FEW009 12/10 Q1027
  • 242130Z 30013KT 9999 FEW009 12/10 Q1027
  • 242100Z 30016KT 9999 FEW009 12/10 Q1026

TAF TAF LPPT
Valido dal 25 a 00 ore il 26 a 06 ore UTC


242310Z 2500/2606 33010KT 9999 SCT012
TEMPO 2500/2509 BKN010
BECMG 2509/2511 FEW015 BKN025
BECMG 2512/2514 29008KT
PROB40
TEMPO 2514/2517 5000 -RADZ BR SCT006 BKN012
BECMG 2517/2520 34008KT SCT035



MetMap, La meteo Aeronautica in un colpo d'occhio ! - Copyright ORBIFLY Dicembre 2007 - Disclaimer

ORBIFLY MET'MAP TEAM :

Programmazione e sviluppo : Alexandra Zaïnal
Concezione : Baudouin d'Aumeries
Aiuto per la programmazione : Marc-Olivier Méhu
Supporto tecnico e logistico : Manuel Goepfert
Aiuto per la traduzione : Arnaldo La Scala

Contatto : metmap@orbifly.com




FONTI E CREDITI :

   NOAA